sensor_id;sensor_type;location;lat;lon;timestamp;P1;durP1;ratioP1;P2;durP2;ratioP2
3491;SDS011;1760;52.480;13.422;2023-04-25T00:02:14;3.93;;;2.07;;
3491;SDS011;1760;52.480;13.422;2023-04-25T00:04:43;6.87;;;2.37;;
3491;SDS011;1760;52.480;13.422;2023-04-25T00:07:09;2.13;;;1.83;;
3491;SDS011;1760;52.480;13.422;2023-04-25T00:09:36;3.97;;;1.53;;
3491;SDS011;1760;52.480;13.422;2023-04-25T00:12:03;4.90;;;2.30;;
3491;SDS011;1760;52.480;13.422;2023-04-25T00:14:31;1.80;;;1.33;;
3491;SDS011;1760;52.480;13.422;2023-04-25T00:16:59;2.70;;;2.03;;
3491;SDS011;1760;52.480;13.422;2023-04-25T00:19:25;1.90;;;1.53;;
3491;SDS011;1760;52.480;13.422;2023-04-25T00:21:54;3.13;;;2.10;;
3491;SDS011;1760;52.480;13.422;2023-04-25T00:24:21;7.00;;;1.87;;
3491;SDS011;1760;52.480;13.422;2023-04-25T00:26:48;2.30;;;1.30;;
3491;SDS011;1760;52.480;13.422;2023-04-25T00:29:15;5.60;;;1.87;;
3491;SDS011;1760;52.480;13.422;2023-04-25T00:31:42;3.90;;;1.70;;
3491;SDS011;1760;52.480;13.422;2023-04-25T00:34:09;7.97;;;1.93;;
3491;SDS011;1760;52.480;13.422;2023-04-25T00:36:35;5.80;;;2.07;;
3491;SDS011;1760;52.480;13.422;2023-04-25T00:39:04;2.83;;;1.83;;
3491;SDS011;1760;52.480;13.422;2023-04-25T00:41:31;4.33;;;1.60;;
3491;SDS011;1760;52.480;13.422;2023-04-25T00:43:59;2.97;;;2.17;;
3491;SDS011;1760;52.480;13.422;2023-04-25T00:46:27;2.57;;;1.40;;
3491;SDS011;1760;52.480;13.422;2023-04-25T00:48:55;3.33;;;1.57;;
3491;SDS011;1760;52.480;13.422;2023-04-25T00:51:22;3.00;;;1.93;;
3491;SDS011;1760;52.480;13.422;2023-04-25T00:53:50;7.80;;;1.73;;
3491;SDS011;1760;52.480;13.422;2023-04-25T00:56:18;4.70;;;2.00;;
3491;SDS011;1760;52.480;13.422;2023-04-25T00:58:46;4.20;;;1.90;;
3491;SDS011;1760;52.480;13.422;2023-04-25T01:01:15;5.00;;;1.77;;
3491;SDS011;1760;52.480;13.422;2023-04-25T01:03:42;3.77;;;1.87;;
3491;SDS011;1760;52.480;13.422;2023-04-25T01:06:11;5.23;;;1.73;;
3491;SDS011;1760;52.480;13.422;2023-04-25T01:08:38;4.30;;;2.33;;
3491;SDS011;1760;52.480;13.422;2023-04-25T01:11:08;3.00;;;2.00;;
3491;SDS011;1760;52.480;13.422;2023-04-25T01:13:36;2.90;;;1.47;;
3491;SDS011;1760;52.480;13.422;2023-04-25T01:16:05;2.27;;;1.83;;
3491;SDS011;1760;52.480;13.422;2023-04-25T01:18:32;5.50;;;2.17;;
3491;SDS011;1760;52.480;13.422;2023-04-25T01:21:03;3.00;;;2.70;;
3491;SDS011;1760;52.480;13.422;2023-04-25T01:23:35;8.43;;;3.13;;
3491;SDS011;1760;52.480;13.422;2023-04-25T01:26:03;3.20;;;2.63;;
3491;SDS011;1760;52.480;13.422;2023-04-25T01:28:30;4.47;;;2.00;;
3491;SDS011;1760;52.480;13.422;2023-04-25T01:30:59;5.63;;;2.77;;
3491;SDS011;1760;52.480;13.422;2023-04-25T01:33:28;4.03;;;1.97;;
3491;SDS011;1760;52.480;13.422;2023-04-25T01:35:55;3.93;;;1.60;;
3491;SDS011;1760;52.480;13.422;2023-04-25T01:38:26;5.40;;;2.80;;
3491;SDS011;1760;52.480;13.422;2023-04-25T01:40:53;9.40;;;2.70;;
3491;SDS011;1760;52.480;13.422;2023-04-25T01:43:21;6.80;;;3.47;;
3491;SDS011;1760;52.480;13.422;2023-04-25T01:45:48;14.90;;;8.00;;
3491;SDS011;1760;52.480;13.422;2023-04-25T01:48:16;16.40;;;10.53;;
3491;SDS011;1760;52.480;13.422;2023-04-25T01:50:43;11.50;;;7.33;;
3491;SDS011;1760;52.480;13.422;2023-04-25T01:53:10;19.13;;;9.17;;
3491;SDS011;1760;52.480;13.422;2023-04-25T01:55:40;10.10;;;7.30;;
3491;SDS011;1760;52.480;13.422;2023-04-25T01:58:07;12.53;;;8.50;;
3491;SDS011;1760;52.480;13.422;2023-04-25T02:00:37;11.97;;;6.23;;
3491;SDS011;1760;52.480;13.422;2023-04-25T02:03:06;13.77;;;6.00;;
3491;SDS011;1760;52.480;13.422;2023-04-25T02:05:34;3.73;;;3.30;;
3491;SDS011;1760;52.480;13.422;2023-04-25T02:08:02;11.73;;;4.70;;
3491;SDS011;1760;52.480;13.422;2023-04-25T02:10:29;16.43;;;7.00;;
3491;SDS011;1760;52.480;13.422;2023-04-25T02:12:58;10.73;;;4.63;;
3491;SDS011;1760;52.480;13.422;2023-04-25T02:15:25;8.83;;;4.10;;
3491;SDS011;1760;52.480;13.422;2023-04-25T02:17:52;8.00;;;3.67;;
3491;SDS011;1760;52.480;13.422;2023-04-25T02:20:19;4.57;;;2.60;;
3491;SDS011;1760;52.480;13.422;2023-04-25T02:22:47;4.07;;;2.60;;
3491;SDS011;1760;52.480;13.422;2023-04-25T02:25:14;2.97;;;2.67;;
3491;SDS011;1760;52.480;13.422;2023-04-25T02:27:42;3.27;;;2.97;;
3491;SDS011;1760;52.480;13.422;2023-04-25T02:30:10;3.90;;;2.77;;
3491;SDS011;1760;52.480;13.422;2023-04-25T02:32:38;4.70;;;3.20;;
3491;SDS011;1760;52.480;13.422;2023-04-25T02:35:05;4.70;;;2.20;;
3491;SDS011;1760;52.480;13.422;2023-04-25T02:37:33;5.17;;;3.10;;
3491;SDS011;1760;52.480;13.422;2023-04-25T02:40:04;9.20;;;2.37;;
3491;SDS011;1760;52.480;13.422;2023-04-25T02:42:31;5.60;;;3.23;;
3491;SDS011;1760;52.480;13.422;2023-04-25T02:44:58;10.13;;;2.63;;
3491;SDS011;1760;52.480;13.422;2023-04-25T02:47:27;5.60;;;3.03;;
3491;SDS011;1760;52.480;13.422;2023-04-25T02:49:54;4.43;;;2.70;;
3491;SDS011;1760;52.480;13.422;2023-04-25T02:52:21;15.40;;;3.40;;
3491;SDS011;1760;52.480;13.422;2023-04-25T02:54:47;6.00;;;2.23;;
3491;SDS011;1760;52.480;13.422;2023-04-25T02:57:14;5.27;;;2.90;;
3491;SDS011;1760;52.480;13.422;2023-04-25T02:59:41;5.93;;;2.37;;
3491;SDS011;1760;52.480;13.422;2023-04-25T03:02:08;7.43;;;3.10;;
3491;SDS011;1760;52.480;13.422;2023-04-25T03:04:37;5.30;;;2.77;;
3491;SDS011;1760;52.480;13.422;2023-04-25T03:07:03;6.30;;;4.00;;
3491;SDS011;1760;52.480;13.422;2023-04-25T03:09:30;5.13;;;2.90;;
3491;SDS011;1760;52.480;13.422;2023-04-25T03:11:57;6.40;;;3.00;;
3491;SDS011;1760;52.480;13.422;2023-04-25T03:14:24;3.07;;;2.77;;
3491;SDS011;1760;52.480;13.422;2023-04-25T03:16:51;3.53;;;2.83;;
3491;SDS011;1760;52.480;13.422;2023-04-25T03:19:18;4.83;;;2.90;;
3491;SDS011;1760;52.480;13.422;2023-04-25T03:21:46;8.17;;;3.20;;
3491;SDS011;1760;52.480;13.422;2023-04-25T03:24:14;7.93;;;3.10;;
3491;SDS011;1760;52.480;13.422;2023-04-25T03:26:40;7.13;;;3.70;;
3491;SDS011;1760;52.480;13.422;2023-04-25T03:29:07;13.80;;;3.47;;
3491;SDS011;1760;52.480;13.422;2023-04-25T03:31:34;4.90;;;2.33;;
3491;SDS011;1760;52.480;13.422;2023-04-25T03:34:01;7.83;;;3.57;;
3491;SDS011;1760;52.480;13.422;2023-04-25T03:36:28;4.43;;;2.20;;
3491;SDS011;1760;52.480;13.422;2023-04-25T03:38:56;4.73;;;3.33;;
3491;SDS011;1760;52.480;13.422;2023-04-25T03:41:23;5.60;;;2.87;;
3491;SDS011;1760;52.480;13.422;2023-04-25T03:43:51;7.73;;;2.87;;
3491;SDS011;1760;52.480;13.422;2023-04-25T03:46:17;3.43;;;2.87;;
3491;SDS011;1760;52.480;13.422;2023-04-25T03:48:44;5.60;;;2.70;;
3491;SDS011;1760;52.480;13.422;2023-04-25T03:51:11;4.73;;;3.43;;
3491;SDS011;1760;52.480;13.422;2023-04-25T03:53:38;9.03;;;3.60;;
3491;SDS011;1760;52.480;13.422;2023-04-25T03:56:07;5.10;;;2.80;;
3491;SDS011;1760;52.480;13.422;2023-04-25T03:58:34;4.80;;;2.63;;
3491;SDS011;1760;52.480;13.422;2023-04-25T04:01:01;4.10;;;2.70;;
3491;SDS011;1760;52.480;13.422;2023-04-25T04:03:32;8.87;;;3.53;;
3491;SDS011;1760;52.480;13.422;2023-04-25T04:05:59;8.50;;;3.33;;
3491;SDS011;1760;52.480;13.422;2023-04-25T04:08:26;6.47;;;3.60;;
3491;SDS011;1760;52.480;13.422;2023-04-25T04:10:52;4.40;;;3.10;;
3491;SDS011;1760;52.480;13.422;2023-04-25T04:13:21;4.33;;;3.03;;
3491;SDS011;1760;52.480;13.422;2023-04-25T04:15:48;4.30;;;3.30;;
3491;SDS011;1760;52.480;13.422;2023-04-25T04:18:14;5.43;;;2.90;;
3491;SDS011;1760;52.480;13.422;2023-04-25T04:20:41;4.40;;;3.23;;
3491;SDS011;1760;52.480;13.422;2023-04-25T04:23:08;6.50;;;3.10;;
3491;SDS011;1760;52.480;13.422;2023-04-25T04:25:35;3.00;;;2.60;;
3491;SDS011;1760;52.480;13.422;2023-04-25T04:28:02;8.20;;;3.00;;
3491;SDS011;1760;52.480;13.422;2023-04-25T04:30:31;9.87;;;2.90;;
3491;SDS011;1760;52.480;13.422;2023-04-25T04:33:01;4.40;;;2.80;;
3491;SDS011;1760;52.480;13.422;2023-04-25T04:35:28;6.53;;;2.93;;
3491;SDS011;1760;52.480;13.422;2023-04-25T04:37:55;6.47;;;3.20;;
3491;SDS011;1760;52.480;13.422;2023-04-25T04:40:22;4.50;;;2.53;;
3491;SDS011;1760;52.480;13.422;2023-04-25T04:42:50;6.23;;;2.83;;
3491;SDS011;1760;52.480;13.422;2023-04-25T04:45:18;5.83;;;3.10;;
3491;SDS011;1760;52.480;13.422;2023-04-25T04:47:47;6.60;;;3.10;;
3491;SDS011;1760;52.480;13.422;2023-04-25T04:50:14;5.97;;;3.40;;
3491;SDS011;1760;52.480;13.422;2023-04-25T04:52:41;3.33;;;2.80;;
3491;SDS011;1760;52.480;13.422;2023-04-25T04:55:11;7.63;;;3.40;;
3491;SDS011;1760;52.480;13.422;2023-04-25T04:57:38;4.97;;;2.93;;
3491;SDS011;1760;52.480;13.422;2023-04-25T05:00:05;5.90;;;2.63;;
3491;SDS011;1760;52.480;13.422;2023-04-25T05:02:36;4.30;;;3.27;;
3491;SDS011;1760;52.480;13.422;2023-04-25T05:05:05;12.57;;;3.30;;
3491;SDS011;1760;52.480;13.422;2023-04-25T05:07:32;3.67;;;2.40;;
3491;SDS011;1760;52.480;13.422;2023-04-25T05:09:59;3.63;;;2.87;;
3491;SDS011;1760;52.480;13.422;2023-04-25T05:12:26;7.33;;;3.93;;
3491;SDS011;1760;52.480;13.422;2023-04-25T05:14:53;3.97;;;2.70;;
3491;SDS011;1760;52.480;13.422;2023-04-25T05:17:20;10.90;;;3.80;;
3491;SDS011;1760;52.480;13.422;2023-04-25T05:19:47;8.77;;;4.23;;
3491;SDS011;1760;52.480;13.422;2023-04-25T05:22:15;10.57;;;3.20;;
3491;SDS011;1760;52.480;13.422;2023-04-25T05:24:42;5.77;;;3.70;;
3491;SDS011;1760;52.480;13.422;2023-04-25T05:27:09;8.30;;;3.13;;
3491;SDS011;1760;52.480;13.422;2023-04-25T05:29:36;6.23;;;3.63;;
3491;SDS011;1760;52.480;13.422;2023-04-25T05:32:03;8.40;;;3.70;;
3491;SDS011;1760;52.480;13.422;2023-04-25T05:34:32;5.83;;;3.87;;
3491;SDS011;1760;52.480;13.422;2023-04-25T05:36:59;8.50;;;3.47;;
3491;SDS011;1760;52.480;13.422;2023-04-25T05:39:27;9.00;;;3.50;;
3491;SDS011;1760;52.480;13.422;2023-04-25T05:41:55;13.50;;;4.00;;
3491;SDS011;1760;52.480;13.422;2023-04-25T05:44:21;5.03;;;3.00;;
3491;SDS011;1760;52.480;13.422;2023-04-25T05:46:48;5.20;;;2.20;;
3491;SDS011;1760;52.480;13.422;2023-04-25T05:49:15;11.10;;;4.03;;
3491;SDS011;1760;52.480;13.422;2023-04-25T05:51:42;6.33;;;3.67;;
3491;SDS011;1760;52.480;13.422;2023-04-25T05:54:09;11.53;;;3.70;;
3491;SDS011;1760;52.480;13.422;2023-04-25T05:56:37;6.40;;;3.10;;
3491;SDS011;1760;52.480;13.422;2023-04-25T05:59:04;10.57;;;3.10;;
3491;SDS011;1760;52.480;13.422;2023-04-25T06:01:31;2.73;;;2.50;;
3491;SDS011;1760;52.480;13.422;2023-04-25T06:03:58;7.37;;;3.30;;
3491;SDS011;1760;52.480;13.422;2023-04-25T06:06:27;5.00;;;3.30;;
3491;SDS011;1760;52.480;13.422;2023-04-25T06:08:54;8.17;;;3.67;;
3491;SDS011;1760;52.480;13.422;2023-04-25T06:11:21;3.70;;;2.47;;
3491;SDS011;1760;52.480;13.422;2023-04-25T06:13:49;4.30;;;2.37;;
3491;SDS011;1760;52.480;13.422;2023-04-25T06:16:16;8.30;;;3.97;;
3491;SDS011;1760;52.480;13.422;2023-04-25T06:18:43;7.00;;;3.90;;
3491;SDS011;1760;52.480;13.422;2023-04-25T06:21:10;6.03;;;3.43;;
3491;SDS011;1760;52.480;13.422;2023-04-25T06:23:37;5.50;;;3.47;;
3491;SDS011;1760;52.480;13.422;2023-04-25T06:26:03;6.20;;;3.10;;
3491;SDS011;1760;52.480;13.422;2023-04-25T06:28:30;8.80;;;3.07;;
3491;SDS011;1760;52.480;13.422;2023-04-25T06:30:58;6.97;;;3.93;;
3491;SDS011;1760;52.480;13.422;2023-04-25T06:33:27;6.00;;;3.87;;
3491;SDS011;1760;52.480;13.422;2023-04-25T06:35:54;6.73;;;3.73;;
3491;SDS011;1760;52.480;13.422;2023-04-25T06:38:20;5.13;;;3.80;;
3491;SDS011;1760;52.480;13.422;2023-04-25T06:40:47;4.50;;;3.20;;
3491;SDS011;1760;52.480;13.422;2023-04-25T06:43:14;5.30;;;4.00;;
3491;SDS011;1760;52.480;13.422;2023-04-25T06:45:41;6.90;;;3.47;;
3491;SDS011;1760;52.480;13.422;2023-04-25T06:48:09;4.80;;;3.73;;
3491;SDS011;1760;52.480;13.422;2023-04-25T06:50:36;4.80;;;3.10;;
3491;SDS011;1760;52.480;13.422;2023-04-25T06:53:03;8.37;;;3.20;;
3491;SDS011;1760;52.480;13.422;2023-04-25T06:55:30;7.70;;;3.10;;
3491;SDS011;1760;52.480;13.422;2023-04-25T06:57:57;5.30;;;2.93;;
3491;SDS011;1760;52.480;13.422;2023-04-25T07:00:24;6.90;;;3.93;;
3491;SDS011;1760;52.480;13.422;2023-04-25T07:02:51;5.87;;;3.30;;
3491;SDS011;1760;52.480;13.422;2023-04-25T07:05:19;7.63;;;3.40;;
3491;SDS011;1760;52.480;13.422;2023-04-25T07:07:46;17.47;;;3.43;;
3491;SDS011;1760;52.480;13.422;2023-04-25T07:10:13;4.47;;;2.17;;
3491;SDS011;1760;52.480;13.422;2023-04-25T07:12:40;5.80;;;3.03;;
3491;SDS011;1760;52.480;13.422;2023-04-25T07:15:07;4.27;;;2.70;;
3491;SDS011;1760;52.480;13.422;2023-04-25T07:17:35;6.93;;;3.43;;
3491;SDS011;1760;52.480;13.422;2023-04-25T07:20:02;4.53;;;3.07;;
3491;SDS011;1760;52.480;13.422;2023-04-25T07:22:32;6.07;;;2.97;;
3491;SDS011;1760;52.480;13.422;2023-04-25T07:25:02;4.00;;;2.87;;
3491;SDS011;1760;52.480;13.422;2023-04-25T07:27:29;4.90;;;3.00;;
3491;SDS011;1760;52.480;13.422;2023-04-25T07:29:56;11.67;;;2.83;;
3491;SDS011;1760;52.480;13.422;2023-04-25T07:32:23;3.50;;;3.07;;
3491;SDS011;1760;52.480;13.422;2023-04-25T07:34:51;5.90;;;3.17;;
3491;SDS011;1760;52.480;13.422;2023-04-25T07:37:17;3.20;;;2.33;;
3491;SDS011;1760;52.480;13.422;2023-04-25T07:39:46;9.03;;;3.07;;
3491;SDS011;1760;52.480;13.422;2023-04-25T07:42:13;8.70;;;3.50;;
3491;SDS011;1760;52.480;13.422;2023-04-25T07:44:40;5.33;;;3.60;;
3491;SDS011;1760;52.480;13.422;2023-04-25T07:47:07;4.53;;;2.83;;
3491;SDS011;1760;52.480;13.422;2023-04-25T07:49:35;5.20;;;2.90;;
3491;SDS011;1760;52.480;13.422;2023-04-25T07:52:03;7.10;;;3.80;;
3491;SDS011;1760;52.480;13.422;2023-04-25T07:54:31;19.43;;;4.10;;
3491;SDS011;1760;52.480;13.422;2023-04-25T07:56:59;6.40;;;4.10;;
3491;SDS011;1760;52.480;13.422;2023-04-25T07:59:27;6.90;;;3.40;;
3491;SDS011;1760;52.480;13.422;2023-04-25T08:01:54;8.47;;;3.17;;
3491;SDS011;1760;52.480;13.422;2023-04-25T08:04:22;5.43;;;3.13;;
3491;SDS011;1760;52.480;13.422;2023-04-25T08:06:50;5.10;;;2.90;;
3491;SDS011;1760;52.480;13.422;2023-04-25T08:09:18;19.27;;;2.80;;
3491;SDS011;1760;52.480;13.422;2023-04-25T08:11:45;5.47;;;3.17;;
3491;SDS011;1760;52.480;13.422;2023-04-25T08:14:14;7.67;;;2.47;;
3491;SDS011;1760;52.480;13.422;2023-04-25T08:16:41;13.90;;;3.73;;
3491;SDS011;1760;52.480;13.422;2023-04-25T08:19:08;9.67;;;3.30;;
3491;SDS011;1760;52.480;13.422;2023-04-25T08:21:36;11.80;;;3.77;;
3491;SDS011;1760;52.480;13.422;2023-04-25T08:24:04;8.83;;;2.90;;
3491;SDS011;1760;52.480;13.422;2023-04-25T08:26:32;9.13;;;3.10;;
3491;SDS011;1760;52.480;13.422;2023-04-25T08:28:59;8.80;;;3.90;;
3491;SDS011;1760;52.480;13.422;2023-04-25T08:31:27;16.73;;;3.20;;
3491;SDS011;1760;52.480;13.422;2023-04-25T08:33:54;11.33;;;2.47;;
3491;SDS011;1760;52.480;13.422;2023-04-25T08:36:21;11.90;;;3.60;;
3491;SDS011;1760;52.480;13.422;2023-04-25T08:38:49;3.67;;;2.53;;
3491;SDS011;1760;52.480;13.422;2023-04-25T08:41:16;5.40;;;2.50;;
3491;SDS011;1760;52.480;13.422;2023-04-25T08:43:44;10.77;;;3.70;;
3491;SDS011;1760;52.480;13.422;2023-04-25T08:46:12;3.43;;;2.30;;
3491;SDS011;1760;52.480;13.422;2023-04-25T08:48:45;7.87;;;2.80;;
3491;SDS011;1760;52.480;13.422;2023-04-25T08:51:14;5.47;;;2.37;;
3491;SDS011;1760;52.480;13.422;2023-04-25T08:53:50;6.53;;;2.23;;
3491;SDS011;1760;52.480;13.422;2023-04-25T08:56:18;7.30;;;3.03;;
3491;SDS011;1760;52.480;13.422;2023-04-25T08:58:47;16.63;;;3.10;;
3491;SDS011;1760;52.480;13.422;2023-04-25T09:01:15;3.10;;;1.47;;
3491;SDS011;1760;52.480;13.422;2023-04-25T09:03:42;7.60;;;2.73;;
3491;SDS011;1760;52.480;13.422;2023-04-25T09:06:12;4.57;;;2.40;;
3491;SDS011;1760;52.480;13.422;2023-04-25T09:08:41;10.43;;;2.40;;
3491;SDS011;1760;52.480;13.422;2023-04-25T09:11:08;4.30;;;1.80;;
3491;SDS011;1760;52.480;13.422;2023-04-25T09:13:35;7.17;;;2.53;;
3491;SDS011;1760;52.480;13.422;2023-04-25T09:16:02;7.80;;;2.50;;
3491;SDS011;1760;52.480;13.422;2023-04-25T09:18:30;7.30;;;2.00;;
3491;SDS011;1760;52.480;13.422;2023-04-25T09:21:04;5.80;;;2.70;;
3491;SDS011;1760;52.480;13.422;2023-04-25T09:23:38;8.33;;;2.10;;
3491;SDS011;1760;52.480;13.422;2023-04-25T09:26:06;8.23;;;2.80;;
3491;SDS011;1760;52.480;13.422;2023-04-25T09:28:34;6.17;;;2.40;;
3491;SDS011;1760;52.480;13.422;2023-04-25T09:31:02;16.07;;;2.00;;
3491;SDS011;1760;52.480;13.422;2023-04-25T09:33:30;8.77;;;2.80;;
3491;SDS011;1760;52.480;13.422;2023-04-25T09:36:02;5.67;;;3.30;;
3491;SDS011;1760;52.480;13.422;2023-04-25T09:38:32;4.70;;;3.30;;
3491;SDS011;1760;52.480;13.422;2023-04-25T09:41:06;5.80;;;2.87;;
3491;SDS011;1760;52.480;13.422;2023-04-25T09:43:35;6.07;;;3.43;;
3491;SDS011;1760;52.480;13.422;2023-04-25T09:46:04;4.30;;;2.30;;
3491;SDS011;1760;52.480;13.422;2023-04-25T09:48:34;4.33;;;2.03;;
3491;SDS011;1760;52.480;13.422;2023-04-25T09:51:06;5.83;;;2.20;;
3491;SDS011;1760;52.480;13.422;2023-04-25T09:53:38;14.30;;;2.00;;
3491;SDS011;1760;52.480;13.422;2023-04-25T09:56:06;5.10;;;2.40;;
3491;SDS011;1760;52.480;13.422;2023-04-25T09:58:36;12.23;;;2.77;;
3491;SDS011;1760;52.480;13.422;2023-04-25T10:01:04;8.80;;;2.20;;
3491;SDS011;1760;52.480;13.422;2023-04-25T10:03:33;7.07;;;3.17;;
3491;SDS011;1760;52.480;13.422;2023-04-25T10:06:02;9.70;;;2.30;;
3491;SDS011;1760;52.480;13.422;2023-04-25T10:08:34;5.70;;;1.77;;
3491;SDS011;1760;52.480;13.422;2023-04-25T10:11:02;6.67;;;1.93;;
3491;SDS011;1760;52.480;13.422;2023-04-25T10:13:30;12.33;;;2.27;;
3491;SDS011;1760;52.480;13.422;2023-04-25T10:15:59;10.40;;;2.50;;
3491;SDS011;1760;52.480;13.422;2023-04-25T10:18:27;5.93;;;1.80;;
3491;SDS011;1760;52.480;13.422;2023-04-25T10:20:55;4.70;;;1.90;;
3491;SDS011;1760;52.480;13.422;2023-04-25T10:23:24;5.37;;;2.03;;
3491;SDS011;1760;52.480;13.422;2023-04-25T10:25:53;4.13;;;2.13;;
3491;SDS011;1760;52.480;13.422;2023-04-25T10:28:21;5.57;;;2.17;;
3491;SDS011;1760;52.480;13.422;2023-04-25T10:30:57;7.57;;;3.40;;
3491;SDS011;1760;52.480;13.422;2023-04-25T10:33:34;4.50;;;2.50;;
3491;SDS011;1760;52.480;13.422;2023-04-25T10:36:12;4.90;;;1.60;;
3491;SDS011;1760;52.480;13.422;2023-04-25T10:38:41;5.97;;;2.50;;
3491;SDS011;1760;52.480;13.422;2023-04-25T10:41:11;4.10;;;2.07;;
3491;SDS011;1760;52.480;13.422;2023-04-25T10:43:39;8.03;;;1.57;;
3491;SDS011;1760;52.480;13.422;2023-04-25T10:46:15;2.20;;;1.40;;
3491;SDS011;1760;52.480;13.422;2023-04-25T10:48:49;7.30;;;2.00;;
3491;SDS011;1760;52.480;13.422;2023-04-25T10:51:17;6.00;;;2.17;;
3491;SDS011;1760;52.480;13.422;2023-04-25T10:53:46;3.30;;;1.40;;
3491;SDS011;1760;52.480;13.422;2023-04-25T10:56:18;8.20;;;2.30;;
3491;SDS011;1760;52.480;13.422;2023-04-25T10:58:46;3.30;;;2.03;;
3491;SDS011;1760;52.480;13.422;2023-04-25T11:01:13;4.40;;;1.17;;
3491;SDS011;1760;52.480;13.422;2023-04-25T11:03:42;7.60;;;2.00;;
3491;SDS011;1760;52.480;13.422;2023-04-25T11:06:12;4.57;;;1.87;;
3491;SDS011;1760;52.480;13.422;2023-04-25T11:08:47;4.53;;;2.50;;
3491;SDS011;1760;52.480;13.422;2023-04-25T11:11:17;10.20;;;2.53;;
3491;SDS011;1760;52.480;13.422;2023-04-25T11:13:47;7.17;;;1.47;;
3491;SDS011;1760;52.480;13.422;2023-04-25T11:16:14;8.00;;;1.93;;
3491;SDS011;1760;52.480;13.422;2023-04-25T11:18:42;5.23;;;1.83;;
3491;SDS011;1760;52.480;13.422;2023-04-25T11:21:09;4.97;;;1.80;;
3491;SDS011;1760;52.480;13.422;2023-04-25T11:23:36;15.90;;;3.50;;
3491;SDS011;1760;52.480;13.422;2023-04-25T11:26:03;6.93;;;1.70;;
3491;SDS011;1760;52.480;13.422;2023-04-25T11:28:32;7.10;;;2.50;;
3491;SDS011;1760;52.480;13.422;2023-04-25T11:30:58;3.80;;;1.90;;
3491;SDS011;1760;52.480;13.422;2023-04-25T11:33:25;4.73;;;2.17;;
3491;SDS011;1760;52.480;13.422;2023-04-25T11:35:53;6.03;;;2.10;;
3491;SDS011;1760;52.480;13.422;2023-04-25T11:38:21;1.97;;;1.17;;
3491;SDS011;1760;52.480;13.422;2023-04-25T11:40:52;7.30;;;2.00;;
3491;SDS011;1760;52.480;13.422;2023-04-25T11:43:20;4.27;;;1.80;;
3491;SDS011;1760;52.480;13.422;2023-04-25T11:45:49;2.10;;;1.13;;
3491;SDS011;1760;52.480;13.422;2023-04-25T11:48:17;2.33;;;1.80;;
3491;SDS011;1760;52.480;13.422;2023-04-25T11:50:45;2.93;;;1.33;;
3491;SDS011;1760;52.480;13.422;2023-04-25T11:53:12;4.10;;;1.87;;
3491;SDS011;1760;52.480;13.422;2023-04-25T11:55:39;2.33;;;1.40;;
3491;SDS011;1760;52.480;13.422;2023-04-25T11:58:08;3.93;;;2.00;;
3491;SDS011;1760;52.480;13.422;2023-04-25T12:00:35;2.30;;;1.40;;
3491;SDS011;1760;52.480;13.422;2023-04-25T12:03:03;3.23;;;1.57;;
3491;SDS011;1760;52.480;13.422;2023-04-25T12:05:40;10.17;;;1.60;;
3491;SDS011;1760;52.480;13.422;2023-04-25T12:08:10;6.30;;;2.00;;
3491;SDS011;1760;52.480;13.422;2023-04-25T12:10:38;4.33;;;1.70;;
3491;SDS011;1760;52.480;13.422;2023-04-25T12:13:22;5.13;;;1.80;;
3491;SDS011;1760;52.480;13.422;2023-04-25T12:15:50;4.37;;;1.93;;
3491;SDS011;1760;52.480;13.422;2023-04-25T12:18:20;2.70;;;1.40;;
3491;SDS011;1760;52.480;13.422;2023-04-25T12:20:49;4.23;;;1.60;;
3491;SDS011;1760;52.480;13.422;2023-04-25T12:23:16;4.27;;;1.80;;
3491;SDS011;1760;52.480;13.422;2023-04-25T12:25:43;5.07;;;1.80;;
3491;SDS011;1760;52.480;13.422;2023-04-25T12:28:12;5.40;;;1.83;;
3491;SDS011;1760;52.480;13.422;2023-04-25T12:30:56;10.97;;;4.93;;
3491;SDS011;1760;52.480;13.422;2023-04-25T12:33:27;7.40;;;2.47;;
3491;SDS011;1760;52.480;13.422;2023-04-25T12:35:55;7.20;;;1.93;;
3491;SDS011;1760;52.480;13.422;2023-04-25T12:38:23;3.60;;;1.87;;
3491;SDS011;1760;52.480;13.422;2023-04-25T12:40:51;4.47;;;1.90;;
3491;SDS011;1760;52.480;13.422;2023-04-25T12:43:18;10.97;;;1.93;;
3491;SDS011;1760;52.480;13.422;2023-04-25T12:45:46;3.97;;;1.93;;
3491;SDS011;1760;52.480;13.422;2023-04-25T12:48:14;3.60;;;1.50;;
3491;SDS011;1760;52.480;13.422;2023-04-25T12:50:42;4.20;;;1.77;;
3491;SDS011;1760;52.480;13.422;2023-04-25T12:53:09;5.50;;;2.00;;
3491;SDS011;1760;52.480;13.422;2023-04-25T12:55:36;5.97;;;1.90;;
3491;SDS011;1760;52.480;13.422;2023-04-25T12:58:03;3.00;;;1.50;;
3491;SDS011;1760;52.480;13.422;2023-04-25T13:00:33;4.07;;;2.00;;
3491;SDS011;1760;52.480;13.422;2023-04-25T13:03:00;7.90;;;1.40;;
3491;SDS011;1760;52.480;13.422;2023-04-25T13:05:27;3.73;;;1.30;;
3491;SDS011;1760;52.480;13.422;2023-04-25T13:07:56;4.03;;;2.10;;
3491;SDS011;1760;52.480;13.422;2023-04-25T13:10:24;4.47;;;1.67;;
3491;SDS011;1760;52.480;13.422;2023-04-25T13:12:51;2.50;;;1.00;;
3491;SDS011;1760;52.480;13.422;2023-04-25T13:15:18;4.43;;;1.60;;
3491;SDS011;1760;52.480;13.422;2023-04-25T13:17:45;9.80;;;1.40;;
3491;SDS011;1760;52.480;13.422;2023-04-25T13:20:12;4.93;;;1.20;;
3491;SDS011;1760;52.480;13.422;2023-04-25T13:22:42;8.10;;;1.67;;
3491;SDS011;1760;52.480;13.422;2023-04-25T13:25:12;3.73;;;1.40;;
3491;SDS011;1760;52.480;13.422;2023-04-25T13:27:38;2.50;;;1.63;;
3491;SDS011;1760;52.480;13.422;2023-04-25T13:30:06;3.23;;;1.60;;
3491;SDS011;1760;52.480;13.422;2023-04-25T13:32:34;2.90;;;1.50;;
3491;SDS011;1760;52.480;13.422;2023-04-25T13:35:02;3.27;;;1.30;;
3491;SDS011;1760;52.480;13.422;2023-04-25T13:37:29;9.40;;;1.57;;
3491;SDS011;1760;52.480;13.422;2023-04-25T13:40:22;2.43;;;1.30;;
3491;SDS011;1760;52.480;13.422;2023-04-25T13:42:49;5.73;;;1.60;;
3491;SDS011;1760;52.480;13.422;2023-04-25T13:45:16;1.93;;;1.23;;
3491;SDS011;1760;52.480;13.422;2023-04-25T13:47:43;7.13;;;1.43;;
3491;SDS011;1760;52.480;13.422;2023-04-25T13:50:10;2.77;;;1.47;;
3491;SDS011;1760;52.480;13.422;2023-04-25T13:52:37;3.57;;;1.40;;
3491;SDS011;1760;52.480;13.422;2023-04-25T13:55:06;3.43;;;1.73;;
3491;SDS011;1760;52.480;13.422;2023-04-25T13:57:35;3.67;;;1.47;;
3491;SDS011;1760;52.480;13.422;2023-04-25T14:00:03;10.27;;;1.87;;
3491;SDS011;1760;52.480;13.422;2023-04-25T14:02:33;6.43;;;1.43;;
3491;SDS011;1760;52.480;13.422;2023-04-25T14:05:00;1.70;;;1.13;;
3491;SDS011;1760;52.480;13.422;2023-04-25T14:07:28;2.10;;;1.27;;
3491;SDS011;1760;52.480;13.422;2023-04-25T14:09:55;2.97;;;1.50;;
3491;SDS011;1760;52.480;13.422;2023-04-25T14:12:23;3.40;;;1.60;;
3491;SDS011;1760;52.480;13.422;2023-04-25T14:14:51;4.30;;;1.57;;
3491;SDS011;1760;52.480;13.422;2023-04-25T14:17:18;3.90;;;1.70;;
3491;SDS011;1760;52.480;13.422;2023-04-25T14:19:45;7.33;;;1.53;;
3491;SDS011;1760;52.480;13.422;2023-04-25T14:22:13;5.30;;;1.83;;
3491;SDS011;1760;52.480;13.422;2023-04-25T14:24:40;5.10;;;1.13;;
3491;SDS011;1760;52.480;13.422;2023-04-25T14:27:07;1.60;;;1.17;;
3491;SDS011;1760;52.480;13.422;2023-04-25T14:29:34;3.70;;;1.27;;
3491;SDS011;1760;52.480;13.422;2023-04-25T14:32:03;2.17;;;1.10;;
3491;SDS011;1760;52.480;13.422;2023-04-25T14:34:31;5.80;;;1.50;;
3491;SDS011;1760;52.480;13.422;2023-04-25T14:36:59;4.37;;;1.37;;
3491;SDS011;1760;52.480;13.422;2023-04-25T14:39:26;5.43;;;1.50;;
3491;SDS011;1760;52.480;13.422;2023-04-25T14:41:53;6.27;;;1.43;;
3491;SDS011;1760;52.480;13.422;2023-04-25T14:44:21;2.33;;;1.57;;
3491;SDS011;1760;52.480;13.422;2023-04-25T14:46:48;3.07;;;1.57;;
3491;SDS011;1760;52.480;13.422;2023-04-25T14:49:18;2.60;;;1.40;;
3491;SDS011;1760;52.480;13.422;2023-04-25T14:51:45;4.10;;;1.33;;
3491;SDS011;1760;52.480;13.422;2023-04-25T14:54:12;2.70;;;0.97;;
3491;SDS011;1760;52.480;13.422;2023-04-25T14:56:39;4.23;;;1.40;;
3491;SDS011;1760;52.480;13.422;2023-04-25T14:59:06;1.20;;;1.00;;
3491;SDS011;1760;52.480;13.422;2023-04-25T15:01:33;6.83;;;1.40;;
3491;SDS011;1760;52.480;13.422;2023-04-25T15:04:01;2.80;;;1.40;;
3491;SDS011;1760;52.480;13.422;2023-04-25T15:06:33;9.30;;;1.57;;